Time;durP1;ratioP1;P1;durP2;ratioP2;P2;SDS_P1;SDS_P2;PMS_P1;PMS_P2;Temp;Humidity;BMP_temperature;BMP_pressure;BME280_temperature;BME280_humidity;BME280_pressure;Samples;Min_cycle;Max_cycle;Signal;HPM_P1;HPM_P2
2024/01/01 00:00:04;;;;;;;53.03;30.77;;;7.60;99.90;;;6.70;100.00;99357.47;5053381;28;20212;-73
2024/01/01 00:02:33;;;;;;;60.27;35.10;;;7.60;99.90;;;6.68;100.00;99357.63;5053359;28;20297;-72
2024/01/01 00:05:01;;;;;;;75.00;39.20;;;7.60;99.90;;;6.70;100.00;99354.81;5053306;28;20205;-73
2024/01/01 00:07:30;;;;;;;78.87;40.10;;;7.60;99.90;;;6.66;100.00;99351.66;5053299;28;20225;-73
2024/01/01 00:09:58;;;;;;;67.80;36.50;;;7.80;99.90;;;6.66;100.00;99346.34;5053306;28;20217;-73
2024/01/01 00:12:27;;;;;;;101.27;49.87;;;7.70;99.90;;;6.62;100.00;99353.81;5053290;28;20198;-73
2024/01/01 00:14:55;;;;;;;66.43;34.77;;;7.60;99.90;;;6.64;100.00;99345.69;5052962;28;20305;-74
2024/01/01 00:17:23;;;;;;;61.40;32.90;;;7.60;99.90;;;6.60;100.00;99355.81;5053121;28;20261;-73
2024/01/01 00:19:51;;;;;;;70.93;39.40;;;7.60;99.90;;;6.59;100.00;99350.66;5053070;28;20745;-74
2024/01/01 00:22:19;;;;;;;44.73;26.90;;;7.60;99.90;;;6.58;100.00;99349.81;5053249;28;20213;-73
2024/01/01 00:24:49;;;;;;;44.10;26.40;;;7.50;99.90;;;6.56;100.00;99356.31;5053221;28;20210;-73
2024/01/01 00:27:17;;;;;;;44.33;26.93;;;7.50;99.90;;;6.56;100.00;99354.50;5056108;28;20230;-72
2024/01/01 00:29:45;;;;;;;31.47;19.30;;;7.50;99.90;;;6.53;100.00;99354.00;5056852;28;20302;-74
2024/01/01 00:32:13;;;;;;;43.93;25.97;;;7.50;99.90;;;6.51;100.00;99346.19;5056839;28;20767;-74
2024/01/01 00:34:41;;;;;;;29.97;18.40;;;7.50;99.90;;;6.52;100.00;99345.19;5056891;28;20206;-73
2024/01/01 00:37:09;;;;;;;29.77;17.30;;;7.50;99.90;;;6.51;100.00;99348.00;5057043;28;20260;-73
2024/01/01 00:39:38;;;;;;;23.90;13.43;;;7.40;99.90;;;6.53;100.00;99349.53;5057055;28;20257;-73
2024/01/01 00:42:08;;;;;;;17.47;10.00;;;7.50;99.90;;;6.51;100.00;99345.34;5057020;28;20232;-74
2024/01/01 00:44:36;;;;;;;12.43;8.20;;;7.50;99.90;;;6.51;100.00;99356.81;5056877;28;20577;-73
2024/01/01 00:47:04;;;;;;;16.80;10.27;;;7.40;99.90;;;6.49;100.00;99353.50;5056456;28;20668;-72
2024/01/01 00:49:33;;;;;;;11.93;6.80;;;7.40;99.90;;;6.52;100.00;99349.69;5056945;28;20257;-74
2024/01/01 00:52:01;;;;;;;28.07;15.90;;;7.50;99.90;;;6.49;100.00;99348.19;5056623;28;20218;-74
2024/01/01 00:54:30;;;;;;;12.60;7.17;;;7.40;99.90;;;6.47;100.00;99358.16;5056744;28;20229;-73
2024/01/01 00:56:59;;;;;;;20.80;12.47;;;7.40;99.90;;;6.48;100.00;99362.47;5056627;28;20293;-73
2024/01/01 00:59:29;;;;;;;17.27;9.97;;;7.40;99.90;;;6.48;100.00;99362.47;5056649;28;20662;-73
2024/01/01 01:01:57;;;;;;;23.73;13.30;;;7.60;99.90;;;6.49;100.00;99373.94;5056686;28;20245;-73
2024/01/01 01:04:25;;;;;;;25.10;14.93;;;7.40;99.90;;;6.47;100.00;99367.97;5056704;28;20213;-73
2024/01/01 01:06:55;;;;;;;28.80;15.93;;;7.50;99.90;;;6.46;100.00;99368.97;5056184;28;20619;-74
2024/01/01 01:09:24;;;;;;;20.70;11.50;;;7.40;99.90;;;6.46;100.00;99369.78;5056597;28;20566;-74
2024/01/01 01:11:52;;;;;;;21.63;11.13;;;7.40;99.90;;;6.46;100.00;99375.13;5056418;28;20297;-74
2024/01/01 01:14:20;;;;;;;37.87;18.60;;;7.40;99.90;;;6.47;100.00;99378.59;5056500;28;20288;-74
2024/01/01 01:16:50;;;;;;;30.37;16.70;;;7.40;99.90;;;6.47;100.00;99378.59;5056376;28;20289;-74
2024/01/01 01:19:18;;;;;;;27.57;15.87;;;7.50;99.90;;;6.45;100.00;99373.44;5056194;28;20268;-74
2024/01/01 01:21:46;;;;;;;38.30;19.40;;;7.50;99.90;;;6.47;100.00;99384.72;5056333;28;20579;-74
2024/01/01 01:24:15;;;;;;;51.63;23.43;;;7.50;99.90;;;6.52;100.00;99389.56;5056028;28;20263;-74
2024/01/01 01:26:44;;;;;;;26.97;13.13;;;7.40;99.90;;;6.48;100.00;99389.06;5056231;28;20218;-75
2024/01/01 01:29:12;;;;;;;11.27;5.97;;;7.50;99.90;;;6.47;100.00;99386.59;5056142;28;20312;-74
2024/01/01 01:31:42;;;;;;;11.60;6.77;;;7.50;99.90;;;6.46;100.00;99388.41;5056939;28;20259;-74
2024/01/01 01:34:11;;;;;;;8.20;5.30;;;7.50;99.90;;;6.47;100.00;99384.72;5056121;28;20202;-74
2024/01/01 01:36:40;;;;;;;16.23;8.07;;;7.50;99.90;;;6.49;100.00;99389.91;5055641;28;20249;-74
2024/01/01 01:39:09;;;;;;;9.27;4.77;;;7.40;99.90;;;6.51;100.00;99385.22;5055762;28;20328;-74
2024/01/01 01:41:38;;;;;;;9.60;5.20;;;7.50;99.90;;;6.47;100.00;99379.41;5055933;28;20255;-74
2024/01/01 01:44:06;;;;;;;8.27;5.60;;;7.40;99.90;;;6.46;100.00;99392.88;5055919;28;20207;-74
2024/01/01 01:46:36;;;;;;;8.97;4.80;;;7.50;99.90;;;6.45;100.00;99394.72;5055831;28;20209;-75
2024/01/01 01:49:04;;;;;;;9.37;5.40;;;7.30;99.90;;;6.42;100.00;99394.22;5055420;28;20694;-75
2024/01/01 01:51:34;;;;;;;8.93;4.83;;;7.40;99.90;;;6.41;100.00;99392.53;5055568;28;20264;-75
2024/01/01 01:54:02;;;;;;;9.43;3.67;;;7.50;99.90;;;6.40;100.00;99391.75;5055712;28;20230;-75
2024/01/01 01:56:32;;;;;;;7.47;4.23;;;7.40;99.90;;;6.40;100.00;99397.06;5056299;28;20309;-74
2024/01/01 01:59:03;;;;;;;7.60;4.17;;;7.30;99.90;;;6.40;100.00;99386.44;5055129;28;20592;-75
2024/01/01 02:01:32;;;;;;;7.43;4.90;;;7.30;99.90;;;6.42;100.00;99387.06;5055897;28;20194;-75
2024/01/01 02:04:00;;;;;;;10.57;4.13;;;7.30;99.90;;;6.42;100.00;99394.22;5055462;28;20214;-74
2024/01/01 02:06:28;;;;;;;7.33;4.50;;;7.40;99.90;;;6.41;100.00;99389.88;5055440;28;20310;-74
2024/01/01 02:09:02;;;;;;;7.90;3.77;;;7.40;99.90;;;6.40;100.00;99390.91;5055457;28;20226;-74
2024/01/01 02:11:30;;;;;;;9.83;4.90;;;7.40;99.90;;;6.38;100.00;99385.75;5055032;28;20202;-74
2024/01/01 02:14:09;;;;;;;9.03;4.23;;;7.30;99.90;;;6.36;100.00;99395.72;5055853;28;20210;-74
2024/01/01 02:16:38;;;;;;;7.27;3.30;;;7.30;99.90;;;6.37;100.00;99389.38;5055330;28;20190;-74
2024/01/01 02:19:19;;;;;;;7.73;3.60;;;7.30;99.90;;;6.36;100.00;99385.09;5055087;28;20229;-75
2024/01/01 02:21:49;;;;;;;6.07;3.53;;;7.30;99.90;;;6.38;100.00;99377.78;5055317;28;20229;-74
2024/01/01 02:24:18;;;;;;;6.23;3.30;;;7.30;99.90;;;6.38;100.00;99382.25;5054818;28;20213;-74
2024/01/01 02:26:47;;;;;;;7.00;3.17;;;7.40;99.90;;;6.38;100.00;99391.06;5055064;28;20268;-74
2024/01/01 02:29:17;;;;;;;4.93;3.00;;;7.30;99.90;;;6.38;100.00;99388.41;5054629;28;20305;-74
2024/01/01 02:31:46;;;;;;;6.83;3.63;;;7.40;99.90;;;6.39;100.00;99389.22;5054954;28;20241;-74
2024/01/01 02:34:14;;;;;;;7.97;3.17;;;7.40;99.90;;;6.40;100.00;99386.44;5054909;28;20202;-75
2024/01/01 02:36:43;;;;;;;5.40;3.57;;;7.30;99.90;;;6.42;100.00;99381.75;5054614;28;20198;-74
2024/01/01 02:39:11;;;;;;;7.70;3.37;;;7.40;99.90;;;6.44;100.00;99390.38;5054348;28;20329;-75
2024/01/01 02:41:40;;;;;;;6.37;3.40;;;7.40;99.90;;;6.46;100.00;99388.41;5054750;28;20209;-74
2024/01/01 02:44:09;;;;;;;8.00;3.70;;;7.50;99.90;;;6.47;100.00;99389.25;5054759;28;20206;-74
2024/01/01 02:46:37;;;;;;;7.90;4.07;;;7.40;99.90;;;6.49;100.00;99389.91;5056101;28;20202;-72
2024/01/01 02:49:05;;;;;;;8.10;3.30;;;7.50;99.90;;;6.51;100.00;99393.19;5058884;28;20222;-73
2024/01/01 02:51:33;;;;;;;7.53;3.70;;;7.50;99.90;;;6.50;100.00;99400.38;5059911;28;20214;-72
2024/01/01 02:54:01;;;;;;;8.07;3.70;;;7.50;99.90;;;6.54;100.00;99399.03;5059651;28;20600;-72
2024/01/01 02:56:30;;;;;;;9.00;3.50;;;7.60;99.90;;;6.55;100.00;99395.38;5059068;28;20256;-74
2024/01/01 02:58:59;;;;;;;6.53;3.67;;;7.50;99.90;;;6.55;100.00;99395.38;5058521;28;20265;-73
2024/01/01 03:01:27;;;;;;;8.23;4.10;;;7.50;99.90;;;6.55;100.00;99387.41;5056423;28;20205;-73
2024/01/01 03:03:55;;;;;;;7.70;3.50;;;7.60;99.90;;;6.54;100.00;99395.56;5054395;28;20301;-74
2024/01/01 03:06:24;;;;;;;7.97;3.20;;;7.50;99.90;;;6.52;100.00;99390.38;5054439;28;20202;-74
2024/01/01 03:08:52;;;;;;;6.17;3.50;;;7.50;99.90;;;6.53;100.00;99391.22;5054204;28;20754;-74
2024/01/01 03:11:20;;;;;;;7.33;3.47;;;7.50;99.90;;;6.56;100.00;99390.88;5054228;28;20256;-74
2024/01/01 03:13:49;;;;;;;6.20;3.70;;;7.50;99.90;;;6.55;100.00;99384.75;5054411;28;20206;-73
2024/01/01 03:16:18;;;;;;;9.87;4.00;;;7.50;99.90;;;6.54;100.00;99380.41;5054211;28;20302;-74
2024/01/01 03:18:46;;;;;;;6.60;3.50;;;7.50;99.90;;;6.51;100.00;99383.41;5053946;28;20276;-74
2024/01/01 03:21:15;;;;;;;7.10;3.80;;;7.50;99.90;;;6.49;100.00;99380.09;5054035;28;20301;-74
2024/01/01 03:23:43;;;;;;;8.10;3.83;;;7.50;99.90;;;6.52;100.00;99379.75;5053993;28;20241;-71
2024/01/01 03:26:12;;;;;;;6.20;3.50;;;7.60;99.90;;;6.50;100.00;99381.75;5054260;28;20241;-71
2024/01/01 03:28:40;;;;;;;8.03;3.67;;;7.50;99.90;;;6.49;100.00;99382.75;5053756;28;20309;-71
2024/01/01 03:31:09;;;;;;;7.00;4.07;;;7.50;99.90;;;6.48;100.00;99381.09;5053922;28;20275;-71
2024/01/01 03:33:38;;;;;;;11.60;5.60;;;7.50;99.90;;;6.50;100.00;99387.09;5053851;28;20241;-71
2024/01/01 03:36:07;;;;;;;8.40;4.63;;;7.50;99.90;;;6.50;100.00;99387.09;5053435;28;20671;-72
2024/01/01 03:38:36;;;;;;;8.77;4.27;;;7.40;99.90;;;6.48;100.00;99382.91;5053619;28;20316;-71
2024/01/01 03:41:04;;;;;;;11.07;5.97;;;7.50;99.90;;;6.50;100.00;99386.25;5053676;28;20226;-71
2024/01/01 03:43:32;;;;;;;12.87;6.40;;;7.40;99.90;;;6.49;100.00;99382.75;5053948;28;20210;-72
2024/01/01 03:46:00;;;;;;;11.37;5.57;;;7.50;99.90;;;6.49;100.00;99389.91;5053672;28;20206;-71
2024/01/01 03:48:29;;;;;;;11.90;6.23;;;7.50;99.90;;;6.48;100.00;99394.38;5053291;28;20695;-71
2024/01/01 03:50:58;;;;;;;12.00;7.07;;;7.50;99.90;;;6.47;100.00;99390.03;5053702;28;20202;-71
2024/01/01 03:53:26;;;;;;;10.73;6.57;;;7.40;99.90;;;6.46;100.00;99385.75;5053549;28;20297;-71
2024/01/01 03:55:54;;;;;;;14.23;7.57;;;7.50;99.90;;;6.46;100.00;99385.75;5055054;28;20206;-71
2024/01/01 03:58:23;;;;;;;13.57;6.97;;;7.40;99.90;;;6.43;100.00;99391.41;5053486;28;20267;-71
2024/01/01 04:00:51;;;;;;;12.17;6.97;;;7.40;99.90;;;6.44;100.00;99387.72;5052317;28;20711;-71
2024/01/01 04:03:19;;;;;;;10.17;6.63;;;7.40;99.90;;;6.44;100.00;99387.72;5053473;28;20296;-71
2024/01/01 04:05:47;;;;;;;10.90;6.27;;;7.40;99.90;;;6.41;100.00;99380.09;5053294;28;20255;-71
2024/01/01 04:08:17;;;;;;;10.23;6.33;;;7.40;99.90;;;6.39;100.00;99387.41;5053037;28;20232;-71
2024/01/01 04:10:47;;;;;;;10.73;6.47;;;7.30;99.90;;;6.39;100.00;99379.44;5053107;28;20763;-71
2024/01/01 04:13:15;;;;;;;11.27;6.53;;;7.40;99.90;;;6.39;100.00;99383.91;5053328;28;20213;-71
2024/01/01 04:15:43;;;;;;;11.23;6.30;;;7.30;99.90;;;6.36;100.00;99385.09;5053047;28;20274;-71
2024/01/01 04:18:11;;;;;;;10.47;6.10;;;7.30;99.90;;;6.32;100.00;99383.75;5053175;28;20258;-71
2024/01/01 04:20:40;;;;;;;11.43;6.97;;;7.30;99.90;;;6.31;100.00;99381.25;5053153;28;20232;-71
2024/01/01 04:23:08;;;;;;;8.73;6.37;;;7.30;99.90;;;6.28;100.00;99377.09;5053375;28;20300;-71
2024/01/01 04:25:37;;;;;;;9.67;5.67;;;7.20;99.90;;;6.25;100.00;99380.09;5053275;28;20214;-71
2024/01/01 04:28:06;;;;;;;12.37;6.03;;;7.20;99.90;;;6.22;100.00;99383.09;5052848;28;20240;-71
2024/01/01 04:30:34;;;;;;;11.73;6.00;;;7.10;99.90;;;6.21;100.00;99381.41;5053192;28;20198;-71
2024/01/01 04:33:02;;;;;;;8.83;5.57;;;7.20;99.90;;;6.20;100.00;99385.06;5053196;28;20209;-71
2024/01/01 04:35:32;;;;;;;8.70;5.20;;;7.10;99.90;;;6.20;100.00;99374.44;5052791;28;20746;-71
2024/01/01 04:38:00;;;;;;;8.37;5.47;;;7.10;99.90;;;6.21;100.00;99365.47;5052836;28;20312;-71
2024/01/01 04:40:28;;;;;;;11.23;5.73;;;7.10;99.90;;;6.24;100.00;99365.13;5053195;28;20261;-71
2024/01/01 04:42:59;;;;;;;8.13;5.13;;;7.20;99.90;;;6.23;100.00;99363.50;5052877;28;20297;-71
2024/01/01 04:45:27;;;;;;;9.43;5.57;;;7.20;99.90;;;6.23;100.00;99360.84;5053050;28;20206;-71
2024/01/01 04:47:55;;;;;;;9.23;5.13;;;7.20;99.90;;;6.24;100.00;99354.50;5052733;28;20798;-71
2024/01/01 04:50:24;;;;;;;12.40;5.50;;;7.20;99.90;;;6.25;100.00;99347.38;5053122;28;20206;-71
2024/01/01 04:52:52;;;;;;;8.20;5.23;;;7.20;99.90;;;6.23;100.00;99350.22;5052697;28;20741;-71
2024/01/01 04:55:20;;;;;;;10.63;5.67;;;7.20;99.90;;;6.23;100.00;99344.91;5053103;28;20260;-71
2024/01/01 04:57:48;;;;;;;8.37;5.20;;;7.10;99.90;;;6.24;100.00;99346.53;5052869;28;20597;-71
2024/01/01 05:00:19;;;;;;;8.23;5.10;;;7.20;99.90;;;6.21;100.00;99344.22;5052877;28;20233;-71
2024/01/01 05:02:47;;;;;;;12.07;5.77;;;7.10;99.90;;;6.20;100.00;99345.19;5052976;28;20237;-71
2024/01/01 05:05:15;;;;;;;8.03;4.73;;;7.10;99.90;;;6.18;100.00;99354.34;5053145;28;20206;-71
2024/01/01 05:07:45;;;;;;;13.87;5.93;;;7.00;99.90;;;6.18;100.00;99360.50;5052755;28;20230;-71
2024/01/01 05:10:13;;;;;;;9.13;5.37;;;7.10;99.90;;;6.18;100.00;99357.84;5052812;28;20210;-71
2024/01/01 05:12:43;;;;;;;10.10;5.47;;;7.00;99.90;;;6.18;100.00;99349.88;5054688;28;20289;-71
2024/01/01 05:15:13;;;;;;;11.63;6.10;;;7.20;99.90;;;6.17;100.00;99350.84;5056611;28;20244;-71
2024/01/01 05:17:42;;;;;;;7.83;4.87;;;7.10;99.90;;;6.15;100.00;99352.84;5056360;28;20288;-71
2024/01/01 05:20:11;;;;;;;10.13;5.60;;;7.10;99.90;;;6.15;100.00;99350.19;5055920;28;20707;-71
2024/01/01 05:22:40;;;;;;;8.67;5.80;;;7.10;99.90;;;6.14;100.00;99353.84;5056486;28;20225;-71
2024/01/01 05:25:09;;;;;;;8.60;5.40;;;7.10;99.90;;;6.13;100.00;99348.72;5056247;28;20289;-71
2024/01/01 05:27:37;;;;;;;9.23;5.40;;;7.00;99.90;;;6.12;100.00;99350.53;5056231;28;20317;-71
2024/01/01 05:30:07;;;;;;;10.03;5.23;;;7.10;99.90;;;6.14;100.00;99359.16;5056135;28;20202;-71
2024/01/01 05:32:35;;;;;;;12.20;5.73;;;7.00;99.90;;;6.13;100.00;99362.81;5056174;28;20202;-71
2024/01/01 05:35:06;;;;;;;10.67;5.60;;;7.10;99.90;;;6.13;100.00;99357.50;5055926;28;20576;-71
2024/01/01 05:37:34;;;;;;;9.77;5.67;;;7.00;99.90;;;6.13;100.00;99354.84;5056066;28;20230;-71
2024/01/01 05:40:03;;;;;;;9.20;5.30;;;7.00;99.90;;;6.16;100.00;99364.31;5055917;28;20206;-71
2024/01/01 05:42:32;;;;;;;8.97;5.70;;;7.00;99.90;;;6.14;100.00;99359.16;5055652;28;20679;-72
2024/01/01 05:45:00;;;;;;;8.00;5.00;;;7.10;99.90;;;6.13;100.00;99359.34;5055884;28;20211;-72
2024/01/01 05:47:28;;;;;;;7.83;5.63;;;7.10;99.90;;;6.13;100.00;99357.50;5055787;28;20230;-71
2024/01/01 05:49:56;;;;;;;10.03;5.63;;;7.10;99.90;;;6.14;100.00;99369.78;5055762;28;20208;-71
2024/01/01 05:52:26;;;;;;;12.47;6.03;;;7.10;99.90;;;6.12;100.00;99371.78;5055670;28;20233;-71
2024/01/01 05:54:54;;;;;;;11.60;6.10;;;7.10;99.90;;;6.11;100.00;99380.75;5055726;28;20213;-71
2024/01/01 05:57:22;;;;;;;11.13;6.73;;;7.10;99.90;;;6.16;100.00;99382.94;5055662;28;20226;-71
2024/01/01 05:59:50;;;;;;;12.57;6.60;;;7.10;99.90;;;6.20;100.00;99386.91;5055632;28;20297;-71
2024/01/01 06:02:19;;;;;;;11.20;6.60;;;7.20;99.90;;;6.19;100.00;99394.06;5055478;28;20233;-71
2024/01/01 06:04:47;;;;;;;10.70;6.50;;;7.20;99.90;;;6.20;100.00;99387.72;5055188;28;20718;-71
2024/01/01 06:07:15;;;;;;;10.57;6.50;;;7.20;99.90;;;6.21;100.00;99402.69;5055715;28;20257;-71
2024/01/01 06:09:44;;;;;;;14.77;6.60;;;7.30;99.90;;;6.21;100.00;99412.47;5055123;28;20655;-71
2024/01/01 06:12:13;;;;;;;16.30;6.40;;;7.20;99.90;;;6.20;100.00;99416.94;5055340;28;20293;-71
2024/01/01 06:14:41;;;;;;;11.13;6.70;;;7.10;99.90;;;6.17;100.00;99411.97;5055331;28;20570;-71
2024/01/01 06:17:09;;;;;;;14.40;6.77;;;7.20;99.90;;;6.19;100.00;99430.44;5055163;28;20205;-71
2024/01/01 06:19:37;;;;;;;9.80;5.93;;;7.20;99.90;;;6.16;100.00;99431.59;5055267;28;20210;-71
2024/01/01 06:22:05;;;;;;;13.87;6.40;;;7.20;99.90;;;6.13;100.00;99429.22;5055191;28;20316;-71
2024/01/01 06:24:33;;;;;;;14.90;6.47;;;7.10;99.90;;;6.11;100.00;99431.22;5054292;28;20282;-71
2024/01/01 06:27:03;;;;;;;11.70;6.13;;;7.10;99.90;;;6.06;100.00;99421.09;5054631;28;20296;-71
2024/01/01 06:29:32;;;;;;;10.10;5.40;;;7.00;99.90;;;6.06;100.00;99437.03;5055043;28;20228;-71
2024/01/01 06:32:00;;;;;;;13.00;6.37;;;7.10;99.90;;;6.05;100.00;99429.25;5055086;28;20197;-71
2024/01/01 06:34:28;;;;;;;9.60;5.27;;;7.00;99.90;;;6.03;100.00;99432.03;5054908;28;20206;-71
2024/01/01 06:36:56;;;;;;;13.20;6.17;;;7.00;99.90;;;6.03;100.00;99428.56;5054857;28;20244;-71
2024/01/01 06:39:24;;;;;;;12.33;5.60;;;7.00;99.90;;;6.02;100.00;99425.09;5054474;28;20710;-71
2024/01/01 06:41:52;;;;;;;8.40;4.33;;;7.00;99.90;;;6.00;100.00;99426.22;5054472;28;20388;-71
2024/01/01 06:44:25;;;;;;;9.20;4.67;;;7.00;99.90;;;6.00;100.00;99426.22;5054812;28;20240;-71
2024/01/01 06:46:53;;;;;;;9.73;4.20;;;7.00;99.90;;;5.98;100.00;99431.72;5054774;28;20196;-71
2024/01/01 06:49:21;;;;;;;10.40;4.07;;;6.90;99.90;;;5.97;100.00;99434.53;5054683;28;20210;-71
2024/01/01 06:51:50;;;;;;;11.50;4.27;;;6.90;99.90;;;5.97;100.00;99437.19;5054358;28;20758;-71
2024/01/01 06:54:19;;;;;;;8.20;3.40;;;6.90;99.90;;;5.97;100.00;99434.53;5054607;28;20275;-71
2024/01/01 06:56:47;;;;;;;9.30;3.63;;;6.90;99.90;;;6.00;100.00;99444.81;5054236;28;20212;-71
2024/01/01 06:59:17;;;;;;;7.53;3.87;;;7.00;99.90;;;6.00;100.00;99442.16;5054425;28;20226;-71
2024/01/01 07:01:47;;;;;;;8.97;3.73;;;7.00;99.90;;;6.00;100.00;99452.78;5054453;28;20214;-71
2024/01/01 07:04:15;;;;;;;10.57;4.13;;;6.90;99.90;;;5.98;100.00;99460.09;5054385;28;20202;-71
2024/01/01 07:06:43;;;;;;;6.33;3.60;;;6.90;99.90;;;6.01;100.00;99454.47;5054882;28;20611;-71
2024/01/01 07:09:13;;;;;;;6.57;3.97;;;7.00;99.90;;;6.01;100.00;99454.47;5054308;28;20230;-71
2024/01/01 07:11:41;;;;;;;11.80;3.97;;;7.00;99.90;;;5.97;100.00;99458.44;5054189;28;20621;-71
2024/01/01 07:14:09;;;;;;;9.10;3.60;;;6.90;99.90;;;5.98;100.00;99466.25;5053909;28;20210;-71
2024/01/01 07:16:37;;;;;;;7.43;3.33;;;6.90;99.90;;;5.96;100.00;99462.06;5054223;28;20209;-71
2024/01/01 07:19:07;;;;;;;7.37;3.40;;;6.90;99.90;;;5.99;100.00;99464.44;5054063;28;20228;-71
2024/01/01 07:21:35;;;;;;;7.77;3.60;;;6.90;99.90;;;6.00;100.00;99463.41;5053631;28;20612;-71
2024/01/01 07:24:04;;;;;;;8.67;3.93;;;7.00;99.90;;;6.02;100.00;99469.41;5054016;28;20206;-71
2024/01/01 07:26:32;;;;;;;5.93;3.30;;;6.90;99.90;;;6.02;100.00;99472.06;5053971;28;20245;-71
2024/01/01 07:29:01;;;;;;;8.50;3.37;;;7.00;99.90;;;6.01;100.00;99479.22;5053928;28;20309;-71
2024/01/01 07:31:29;;;;;;;7.90;3.50;;;7.00;99.90;;;6.03;100.00;99477.22;5053897;28;20198;-71
2024/01/01 07:33:57;;;;;;;7.13;4.00;;;7.00;99.90;;;6.04;100.00;99475.38;5054087;28;20213;-71
2024/01/01 07:36:27;;;;;;;7.80;3.50;;;7.00;99.90;;;6.04;100.00;99478.03;5053805;28;20202;-71
2024/01/01 07:38:55;;;;;;;7.40;3.27;;;7.00;99.90;;;6.03;100.00;99481.69;5053718;28;20232;-71
2024/01/01 07:41:23;;;;;;;7.20;3.47;;;7.00;99.90;;;6.02;100.00;99488.00;5053706;28;20229;-71
2024/01/01 07:43:52;;;;;;;8.00;3.03;;;6.90;99.90;;;6.03;100.00;99490.50;5053768;28;20210;-72
2024/01/01 07:46:20;;;;;;;6.77;3.23;;;7.00;99.90;;;6.02;100.00;99480.88;5053627;28;20206;-72
2024/01/01 07:48:48;;;;;;;9.47;3.10;;;7.00;99.90;;;6.02;100.00;99482.69;5053542;28;20226;-69
2024/01/01 07:51:17;;;;;;;5.93;3.10;;;7.00;99.90;;;6.02;100.00;99482.69;5053170;28;20663;-71
2024/01/01 07:53:48;;;;;;;7.97;3.00;;;7.00;99.90;;;6.01;100.00;99486.34;5053566;28;20273;-71
2024/01/01 07:56:16;;;;;;;6.37;2.63;;;7.00;99.90;;;5.98;100.00;99481.34;5053564;28;20640;-71
2024/01/01 07:58:44;;;;;;;7.73;2.73;;;6.90;99.90;;;5.99;100.00;99491.00;5053452;28;20261;-71
2024/01/01 08:01:17;;;;;;;7.43;3.23;;;7.00;99.90;;;6.00;100.00;99493.47;5053348;28;20206;-71
2024/01/01 08:03:45;;;;;;;10.40;3.27;;;7.00;99.90;;;6.03;100.00;99494.97;5053382;28;20190;-71
2024/01/01 08:06:13;;;;;;;6.40;3.13;;;7.00;99.90;;;6.01;100.00;99491.66;5053397;28;20209;-71
2024/01/01 08:08:42;;;;;;;5.23;2.90;;;6.90;99.90;;;5.94;100.00;99495.94;5053072;28;20576;-71
2024/01/01 08:11:11;;;;;;;8.17;3.27;;;6.90;99.90;;;5.91;100.00;99496.28;5053351;28;20208;-71
2024/01/01 08:13:39;;;;;;;8.30;3.00;;;6.90;99.90;;;5.92;100.00;99489.97;5053411;28;20198;-71
2024/01/01 08:16:08;;;;;;;7.03;3.03;;;6.90;99.90;;;5.92;100.00;99482.00;5053275;28;20217;-71
2024/01/01 08:18:36;;;;;;;8.27;3.10;;;6.80;99.90;;;5.89;100.00;99496.41;5053240;28;20230;-71
2024/01/01 08:21:04;;;;;;;8.67;3.47;;;6.80;99.90;;;5.88;100.00;99492.13;5053139;28;20567;-71
2024/01/01 08:23:32;;;;;;;11.27;4.47;;;6.80;99.90;;;5.89;100.00;99487.66;5053164;28;20230;-71
2024/01/01 08:26:02;;;;;;;7.77;3.37;;;6.80;99.90;;;5.85;100.00;99496.91;5053332;28;20210;-71
2024/01/01 08:28:32;;;;;;;8.57;3.13;;;6.80;99.90;;;5.86;100.00;99503.88;5052889;28;20707;-71
2024/01/01 08:31:00;;;;;;;10.50;4.07;;;6.80;99.90;;;5.85;100.00;99502.19;5052986;28;20667;-71
2024/01/01 08:33:28;;;;;;;8.60;3.60;;;6.80;99.90;;;5.85;100.00;99495.06;5053244;28;20288;-70
2024/01/01 08:35:57;;;;;;;13.07;4.13;;;6.80;99.90;;;5.84;100.00;99493.41;5053304;28;20297;-70
2024/01/01 08:38:25;;;;;;;11.63;4.73;;;6.80;99.90;;;5.85;100.00;99491.56;5053136;28;20317;-71
2024/01/01 08:40:54;;;;;;;10.83;4.47;;;6.90;99.90;;;5.85;100.00;99494.22;5053061;28;20202;-70
2024/01/01 08:43:22;;;;;;;15.00;4.90;;;6.90;99.90;;;5.86;100.00;99498.56;5052906;28;20703;-70
2024/01/01 08:45:52;;;;;;;8.67;3.40;;;6.80;99.90;;;5.86;100.00;99499.41;5052947;28;20668;-70
2024/01/01 08:48:20;;;;;;;8.63;3.57;;;6.80;99.90;;;5.86;100.00;99504.72;5055898;28;20317;-70
2024/01/01 08:50:48;;;;;;;8.37;3.43;;;6.90;99.90;;;5.86;100.00;99509.19;5056985;28;20233;-70
2024/01/01 08:53:17;;;;;;;9.37;3.70;;;6.90;99.90;;;5.85;100.00;99512.81;5056732;28;20233;-70
2024/01/01 08:55:45;;;;;;;8.50;3.93;;;6.80;99.90;;;5.86;100.00;99514.50;5057027;28;20206;-70
2024/01/01 08:58:13;;;;;;;8.97;4.27;;;6.80;99.90;;;5.87;100.00;99513.53;5056458;28;20316;-70
2024/01/01 09:00:41;;;;;;;8.17;3.97;;;6.80;99.90;;;5.86;100.00;99519.81;5056766;28;20554;-70
2024/01/01 09:03:11;;;;;;;10.83;4.47;;;6.80;99.90;;;5.86;100.00;99517.16;5056512;28;20715;-71
2024/01/01 09:05:39;;;;;;;11.10;4.60;;;6.90;99.90;;;5.87;100.00;99526.81;5056586;28;20256;-71
2024/01/01 09:08:07;;;;;;;10.87;3.93;;;6.90;99.90;;;5.87;100.00;99524.13;5056611;28;20313;-71
2024/01/01 09:10:36;;;;;;;6.17;3.23;;;6.90;99.90;;;5.87;100.00;99521.50;5056528;28;20202;-70
2024/01/01 09:13:05;;;;;;;11.63;3.80;;;6.80;99.90;;;5.88;100.00;99533.78;5056523;28;20214;-70
2024/01/01 09:15:33;;;;;;;10.90;4.13;;;6.80;99.90;;;5.88;100.00;99536.44;5056500;28;20288;-70
2024/01/01 09:18:01;;;;;;;9.87;3.43;;;6.80;99.90;;;5.89;100.00;99535.47;5056027;28;20711;-70
2024/01/01 09:20:31;;;;;;;10.73;3.90;;;6.80;99.90;;;5.89;100.00;99540.78;5056355;28;20256;-70
2024/01/01 09:23:00;;;;;;;10.20;3.40;;;6.90;99.90;;;5.88;100.00;99533.78;5056333;28;20229;-70
2024/01/01 09:25:28;;;;;;;8.40;2.80;;;6.80;99.90;;;5.88;100.00;99539.09;5056345;28;20206;-70
2024/01/01 09:27:57;;;;;;;9.80;3.47;;;6.90;99.90;;;5.90;100.00;99537.09;5056326;28;20257;-70
2024/01/01 09:30:25;;;;;;;9.67;3.67;;;6.90;99.90;;;5.90;100.00;99545.06;5056127;28;20649;-70
2024/01/01 09:32:53;;;;;;;9.57;3.80;;;6.90;99.90;;;5.91;100.00;99528.16;5056078;28;20210;-70
2024/01/01 09:35:21;;;;;;;10.37;3.47;;;6.90;99.90;;;5.93;100.00;99529.66;5056071;28;20226;-70
2024/01/01 09:37:52;;;;;;;10.43;3.20;;;6.90;99.90;;;5.98;100.00;99535.31;5055983;28;20761;-70
2024/01/01 09:40:22;;;;;;;7.90;3.20;;;6.90;99.90;;;6.01;100.00;99537.66;5056087;28;20248;-71
2024/01/01 09:42:51;;;;;;;8.53;2.97;;;7.00;99.90;;;6.03;100.00;99553.41;5055923;28;20252;-70
2024/01/01 09:45:20;;;;;;;12.40;3.10;;;7.00;99.90;;;6.06;100.00;99553.13;5055910;28;20297;-70
2024/01/01 09:47:48;;;;;;;9.97;2.90;;;7.00;99.90;;;6.10;100.00;99546.47;5055462;28;20320;-70
2024/01/01 09:50:18;;;;;;;9.63;2.80;;;7.10;99.90;;;6.11;100.00;99542.84;5055863;28;20284;-73
2024/01/01 09:52:46;;;;;;;7.40;2.50;;;7.10;99.90;;;6.11;100.00;99537.53;5055590;28;20210;-74
2024/01/01 09:55:16;;;;;;;7.57;2.27;;;7.10;99.90;;;6.13;100.00;99544.31;5055356;28;20225;-74
2024/01/01 09:57:44;;;;;;;8.93;2.50;;;7.10;99.90;;;6.15;100.00;99546.00;5055427;28;20226;-74
2024/01/01 10:00:30;;;;;;;8.80;2.53;;;7.20;99.90;;;6.15;100.00;99557.47;5054922;28;20297;-74
2024/01/01 10:03:10;;;;;;;9.57;2.90;;;7.00;99.90;;;6.15;100.00;99559.28;5055563;28;20217;-74
2024/01/01 10:05:40;;;;;;;9.00;2.73;;;7.10;99.90;;;6.14;100.00;99561.13;5055529;28;20244;-74
2024/01/01 10:08:10;;;;;;;13.13;2.93;;;7.20;99.90;;;6.15;100.00;99557.47;5055108;28;20703;-73
2024/01/01 10:10:41;;;;;;;8.37;2.30;;;7.10;99.90;;;6.18;100.00;99569.59;5056516;28;20198;-73
2024/01/01 10:13:10;;;;;;;7.87;2.23;;;7.20;99.90;;;6.17;100.00;99566.09;5055474;28;20215;-74
2024/01/01 10:15:40;;;;;;;10.03;2.53;;;7.10;99.90;;;6.19;100.00;99569.44;5055341;28;20206;-73
2024/01/01 10:18:10;;;;;;;8.80;2.60;;;7.10;99.90;;;6.20;100.00;99571.09;5055199;28;20272;-75
2024/01/01 10:20:40;;;;;;;8.30;2.20;;;7.10;99.90;;;6.20;100.00;99573.75;5054942;28;20705;-74
2024/01/01 10:23:29;;;;;;;8.20;2.40;;;7.10;99.90;;;6.19;100.00;99579.25;5055125;28;20253;-73
2024/01/01 10:26:09;;;;;;;10.03;3.00;;;7.20;99.90;;;6.19;100.00;99579.25;5054962;28;20569;-74
2024/01/01 10:28:37;;;;;;;12.57;5.37;;;7.10;99.90;;;6.19;100.00;99582.75;5055039;28;20597;-73